Terminal Aerodrome Forecast
Issued by NWS Omaha/Valley, NE

Home | Current Version | Previous Version | Graphics & Text | Print | Product List | Glossary On
Versions: 1 2 3 4 5 6 7 8 9 10 11 12 13 14 15 16 17 18 19 20 21 22 23 24 25 26 27 28 29 30 31 32 33 34
348
FTUS43 KOAX 241729
TAFOFK
TAF
KOFK 241729Z 2418/2518 16012G20KT P6SM FEW250
     FM242100 18014G22KT P6SM VCTS SCT200CB
     FM250100 17010KT P6SM BKN250 PROB30 2503/2506 4SM -TSRA
      OVC040CB
     FM251000 22008KT P6SM SCT200=

USA.gov is the U.S. government's official web portal to all federal, state and local government web resources and services.